sensor_id;sensor_type;location;lat;lon;timestamp;P1;durP1;ratioP1;P2;durP2;ratioP2
9860;SDS011;4969;52.304;4.968;2023-09-19T00:00:14;3.63;;;1.95;;
9860;SDS011;4969;52.304;4.968;2023-09-19T00:02:45;4.75;;;1.88;;
9860;SDS011;4969;52.304;4.968;2023-09-19T00:05:13;5.43;;;1.95;;
9860;SDS011;4969;52.304;4.968;2023-09-19T00:07:40;6.53;;;2.00;;
9860;SDS011;4969;52.304;4.968;2023-09-19T00:10:07;4.55;;;2.10;;
9860;SDS011;4969;52.304;4.968;2023-09-19T00:12:35;7.80;;;2.45;;
9860;SDS011;4969;52.304;4.968;2023-09-19T00:15:01;5.35;;;2.15;;
9860;SDS011;4969;52.304;4.968;2023-09-19T00:17:30;8.15;;;2.03;;
9860;SDS011;4969;52.304;4.968;2023-09-19T00:19:58;6.50;;;2.10;;
9860;SDS011;4969;52.304;4.968;2023-09-19T00:22:38;4.80;;;2.13;;
9860;SDS011;4969;52.304;4.968;2023-09-19T00:25:06;5.78;;;2.47;;
9860;SDS011;4969;52.304;4.968;2023-09-19T00:27:33;6.00;;;2.00;;
9860;SDS011;4969;52.304;4.968;2023-09-19T00:29:59;5.95;;;1.90;;
9860;SDS011;4969;52.304;4.968;2023-09-19T00:32:26;4.85;;;1.95;;
9860;SDS011;4969;52.304;4.968;2023-09-19T00:34:56;6.93;;;2.33;;
9860;SDS011;4969;52.304;4.968;2023-09-19T00:37:24;5.15;;;2.10;;
9860;SDS011;4969;52.304;4.968;2023-09-19T00:39:50;3.85;;;1.92;;
9860;SDS011;4969;52.304;4.968;2023-09-19T00:42:18;4.40;;;2.10;;
9860;SDS011;4969;52.304;4.968;2023-09-19T00:44:45;5.57;;;2.08;;
9860;SDS011;4969;52.304;4.968;2023-09-19T00:47:12;5.55;;;2.05;;
9860;SDS011;4969;52.304;4.968;2023-09-19T00:49:42;5.65;;;2.40;;
9860;SDS011;4969;52.304;4.968;2023-09-19T00:52:09;7.55;;;2.15;;
9860;SDS011;4969;52.304;4.968;2023-09-19T00:54:38;7.40;;;2.42;;
9860;SDS011;4969;52.304;4.968;2023-09-19T00:57:05;4.68;;;1.98;;
9860;SDS011;4969;52.304;4.968;2023-09-19T00:59:33;4.05;;;2.00;;
9860;SDS011;4969;52.304;4.968;2023-09-19T01:02:00;4.80;;;2.25;;
9860;SDS011;4969;52.304;4.968;2023-09-19T01:04:28;3.38;;;1.90;;
9860;SDS011;4969;52.304;4.968;2023-09-19T01:06:55;11.05;;;2.40;;
9860;SDS011;4969;52.304;4.968;2023-09-19T01:09:23;4.75;;;2.10;;
9860;SDS011;4969;52.304;4.968;2023-09-19T01:11:51;5.55;;;2.00;;
9860;SDS011;4969;52.304;4.968;2023-09-19T01:14:25;4.20;;;1.83;;
9860;SDS011;4969;52.304;4.968;2023-09-19T01:17:00;3.38;;;1.70;;
9860;SDS011;4969;52.304;4.968;2023-09-19T01:22:29;3.13;;;2.08;;
9860;SDS011;4969;52.304;4.968;2023-09-19T01:25:17;4.65;;;1.95;;
9860;SDS011;4969;52.304;4.968;2023-09-19T01:28:05;7.97;;;2.35;;
9860;SDS011;4969;52.304;4.968;2023-09-19T01:30:39;6.75;;;2.35;;
9860;SDS011;4969;52.304;4.968;2023-09-19T01:33:09;3.22;;;1.85;;
9860;SDS011;4969;52.304;4.968;2023-09-19T01:35:37;5.57;;;2.33;;
9860;SDS011;4969;52.304;4.968;2023-09-19T01:38:04;5.45;;;2.08;;
9860;SDS011;4969;52.304;4.968;2023-09-19T01:40:31;6.18;;;2.40;;
9860;SDS011;4969;52.304;4.968;2023-09-19T01:43:05;5.80;;;2.05;;
9860;SDS011;4969;52.304;4.968;2023-09-19T01:45:41;5.57;;;1.92;;
9860;SDS011;4969;52.304;4.968;2023-09-19T01:48:15;6.65;;;2.50;;
9860;SDS011;4969;52.304;4.968;2023-09-19T01:50:52;9.18;;;2.25;;
9860;SDS011;4969;52.304;4.968;2023-09-19T01:53:26;5.50;;;1.92;;
9860;SDS011;4969;52.304;4.968;2023-09-19T01:55:55;6.53;;;2.38;;
9860;SDS011;4969;52.304;4.968;2023-09-19T01:58:26;7.93;;;2.30;;
9860;SDS011;4969;52.304;4.968;2023-09-19T02:00:58;4.90;;;2.10;;
9860;SDS011;4969;52.304;4.968;2023-09-19T02:03:30;4.75;;;1.92;;
9860;SDS011;4969;52.304;4.968;2023-09-19T02:05:57;6.25;;;2.20;;
9860;SDS011;4969;52.304;4.968;2023-09-19T02:08:24;7.45;;;2.30;;
9860;SDS011;4969;52.304;4.968;2023-09-19T02:10:52;5.97;;;2.00;;
9860;SDS011;4969;52.304;4.968;2023-09-19T02:13:19;4.75;;;2.05;;
9860;SDS011;4969;52.304;4.968;2023-09-19T02:15:46;5.22;;;2.10;;
9860;SDS011;4969;52.304;4.968;2023-09-19T02:18:15;4.93;;;2.00;;
9860;SDS011;4969;52.304;4.968;2023-09-19T02:20:42;5.85;;;2.47;;
9860;SDS011;4969;52.304;4.968;2023-09-19T02:23:09;7.25;;;2.33;;
9860;SDS011;4969;52.304;4.968;2023-09-19T02:25:36;7.03;;;2.60;;
9860;SDS011;4969;52.304;4.968;2023-09-19T02:28:03;4.88;;;2.25;;
9860;SDS011;4969;52.304;4.968;2023-09-19T02:30:30;6.10;;;2.50;;
9860;SDS011;4969;52.304;4.968;2023-09-19T02:32:57;7.80;;;2.60;;
9860;SDS011;4969;52.304;4.968;2023-09-19T02:35:28;9.15;;;2.55;;
9860;SDS011;4969;52.304;4.968;2023-09-19T02:37:58;9.15;;;2.85;;
9860;SDS011;4969;52.304;4.968;2023-09-19T02:40:24;7.13;;;2.90;;
9860;SDS011;4969;52.304;4.968;2023-09-19T02:42:53;8.57;;;2.75;;
9860;SDS011;4969;52.304;4.968;2023-09-19T02:45:21;7.53;;;2.13;;
9860;SDS011;4969;52.304;4.968;2023-09-19T02:47:48;7.43;;;2.55;;
9860;SDS011;4969;52.304;4.968;2023-09-19T02:50:15;6.40;;;2.58;;
9860;SDS011;4969;52.304;4.968;2023-09-19T02:52:44;9.52;;;2.75;;
9860;SDS011;4969;52.304;4.968;2023-09-19T02:55:12;5.53;;;2.30;;
9860;SDS011;4969;52.304;4.968;2023-09-19T02:57:45;7.57;;;2.75;;
9860;SDS011;4969;52.304;4.968;2023-09-19T03:00:12;6.85;;;2.88;;
9860;SDS011;4969;52.304;4.968;2023-09-19T03:02:40;5.80;;;2.45;;
9860;SDS011;4969;52.304;4.968;2023-09-19T03:05:07;5.82;;;2.42;;
9860;SDS011;4969;52.304;4.968;2023-09-19T03:07:36;5.97;;;2.38;;
9860;SDS011;4969;52.304;4.968;2023-09-19T03:10:05;9.40;;;3.03;;
9860;SDS011;4969;52.304;4.968;2023-09-19T03:12:32;6.97;;;2.58;;
9860;SDS011;4969;52.304;4.968;2023-09-19T03:14:59;7.50;;;2.67;;
9860;SDS011;4969;52.304;4.968;2023-09-19T03:17:26;4.95;;;2.75;;
9860;SDS011;4969;52.304;4.968;2023-09-19T03:19:53;9.18;;;2.85;;
9860;SDS011;4969;52.304;4.968;2023-09-19T03:22:20;10.75;;;3.05;;
9860;SDS011;4969;52.304;4.968;2023-09-19T03:24:46;5.05;;;2.20;;
9860;SDS011;4969;52.304;4.968;2023-09-19T03:27:14;11.38;;;3.38;;
9860;SDS011;4969;52.304;4.968;2023-09-19T03:29:41;9.13;;;2.38;;
9860;SDS011;4969;52.304;4.968;2023-09-19T03:32:08;6.25;;;2.55;;
9860;SDS011;4969;52.304;4.968;2023-09-19T03:34:36;8.40;;;2.60;;
9860;SDS011;4969;52.304;4.968;2023-09-19T03:37:03;5.40;;;2.58;;
9860;SDS011;4969;52.304;4.968;2023-09-19T03:39:30;6.40;;;2.33;;
9860;SDS011;4969;52.304;4.968;2023-09-19T03:41:57;10.18;;;2.70;;
9860;SDS011;4969;52.304;4.968;2023-09-19T03:44:24;5.57;;;2.05;;
9860;SDS011;4969;52.304;4.968;2023-09-19T03:46:51;6.95;;;2.47;;
9860;SDS011;4969;52.304;4.968;2023-09-19T03:49:18;6.82;;;2.38;;
9860;SDS011;4969;52.304;4.968;2023-09-19T03:51:44;7.18;;;2.85;;
9860;SDS011;4969;52.304;4.968;2023-09-19T03:54:11;5.85;;;2.38;;
9860;SDS011;4969;52.304;4.968;2023-09-19T03:56:38;6.35;;;2.72;;
9860;SDS011;4969;52.304;4.968;2023-09-19T03:59:04;6.68;;;2.80;;
9860;SDS011;4969;52.304;4.968;2023-09-19T04:01:35;8.90;;;2.70;;
9860;SDS011;4969;52.304;4.968;2023-09-19T04:04:02;8.88;;;2.47;;
9860;SDS011;4969;52.304;4.968;2023-09-19T04:06:33;6.70;;;2.28;;
9860;SDS011;4969;52.304;4.968;2023-09-19T04:09:00;9.00;;;2.63;;
9860;SDS011;4969;52.304;4.968;2023-09-19T04:11:26;8.07;;;2.35;;
9860;SDS011;4969;52.304;4.968;2023-09-19T04:13:56;5.72;;;2.28;;
9860;SDS011;4969;52.304;4.968;2023-09-19T04:16:22;7.70;;;2.42;;
9860;SDS011;4969;52.304;4.968;2023-09-19T04:18:50;9.20;;;2.50;;
9860;SDS011;4969;52.304;4.968;2023-09-19T04:21:17;7.60;;;2.70;;
9860;SDS011;4969;52.304;4.968;2023-09-19T04:23:44;6.65;;;2.00;;
9860;SDS011;4969;52.304;4.968;2023-09-19T04:26:11;10.45;;;2.35;;
9860;SDS011;4969;52.304;4.968;2023-09-19T04:28:38;4.38;;;2.25;;
9860;SDS011;4969;52.304;4.968;2023-09-19T04:31:05;8.15;;;2.30;;
9860;SDS011;4969;52.304;4.968;2023-09-19T04:33:33;5.10;;;2.45;;
9860;SDS011;4969;52.304;4.968;2023-09-19T04:36:01;8.65;;;2.42;;
9860;SDS011;4969;52.304;4.968;2023-09-19T04:38:32;10.20;;;2.78;;
9860;SDS011;4969;52.304;4.968;2023-09-19T04:40:58;8.93;;;2.47;;
9860;SDS011;4969;52.304;4.968;2023-09-19T04:43:25;5.70;;;2.35;;
9860;SDS011;4969;52.304;4.968;2023-09-19T04:45:52;8.73;;;2.85;;
9860;SDS011;4969;52.304;4.968;2023-09-19T04:48:20;9.13;;;2.60;;
9860;SDS011;4969;52.304;4.968;2023-09-19T04:50:50;8.50;;;2.78;;
9860;SDS011;4969;52.304;4.968;2023-09-19T04:53:18;7.03;;;2.45;;
9860;SDS011;4969;52.304;4.968;2023-09-19T04:55:45;11.05;;;2.78;;
9860;SDS011;4969;52.304;4.968;2023-09-19T04:58:16;6.78;;;2.55;;
9860;SDS011;4969;52.304;4.968;2023-09-19T05:00:42;6.35;;;2.67;;
9860;SDS011;4969;52.304;4.968;2023-09-19T05:03:09;7.88;;;2.38;;
9860;SDS011;4969;52.304;4.968;2023-09-19T05:05:36;9.50;;;3.08;;
9860;SDS011;4969;52.304;4.968;2023-09-19T05:08:04;7.80;;;2.50;;
9860;SDS011;4969;52.304;4.968;2023-09-19T05:10:32;4.95;;;2.53;;
9860;SDS011;4969;52.304;4.968;2023-09-19T05:12:59;9.35;;;3.13;;
9860;SDS011;4969;52.304;4.968;2023-09-19T05:15:26;9.30;;;2.67;;
9860;SDS011;4969;52.304;4.968;2023-09-19T05:17:52;8.25;;;2.50;;
9860;SDS011;4969;52.304;4.968;2023-09-19T05:20:20;5.13;;;2.30;;
9860;SDS011;4969;52.304;4.968;2023-09-19T05:22:57;6.00;;;2.17;;
9860;SDS011;4969;52.304;4.968;2023-09-19T05:25:26;6.35;;;2.50;;
9860;SDS011;4969;52.304;4.968;2023-09-19T05:27:55;5.95;;;2.40;;
9860;SDS011;4969;52.304;4.968;2023-09-19T05:30:23;5.50;;;2.35;;
9860;SDS011;4969;52.304;4.968;2023-09-19T05:32:52;5.50;;;2.30;;
9860;SDS011;4969;52.304;4.968;2023-09-19T05:35:19;10.32;;;2.97;;
9860;SDS011;4969;52.304;4.968;2023-09-19T05:37:46;4.68;;;2.42;;
9860;SDS011;4969;52.304;4.968;2023-09-19T05:40:14;6.47;;;2.92;;
9860;SDS011;4969;52.304;4.968;2023-09-19T05:42:41;6.75;;;2.20;;
9860;SDS011;4969;52.304;4.968;2023-09-19T05:45:10;6.38;;;2.50;;
9860;SDS011;4969;52.304;4.968;2023-09-19T05:47:37;7.95;;;2.78;;
9860;SDS011;4969;52.304;4.968;2023-09-19T05:50:05;5.00;;;2.30;;
9860;SDS011;4969;52.304;4.968;2023-09-19T05:52:34;5.30;;;2.33;;
9860;SDS011;4969;52.304;4.968;2023-09-19T05:55:00;9.43;;;2.45;;
9860;SDS011;4969;52.304;4.968;2023-09-19T05:57:30;7.13;;;2.53;;
9860;SDS011;4969;52.304;4.968;2023-09-19T05:59:56;6.65;;;2.35;;
9860;SDS011;4969;52.304;4.968;2023-09-19T06:02:24;9.85;;;2.83;;
9860;SDS011;4969;52.304;4.968;2023-09-19T06:04:53;7.47;;;2.40;;
9860;SDS011;4969;52.304;4.968;2023-09-19T06:07:20;6.13;;;2.25;;
9860;SDS011;4969;52.304;4.968;2023-09-19T06:09:47;9.52;;;2.60;;
9860;SDS011;4969;52.304;4.968;2023-09-19T06:12:14;8.73;;;2.67;;
9860;SDS011;4969;52.304;4.968;2023-09-19T06:14:42;9.15;;;2.83;;
9860;SDS011;4969;52.304;4.968;2023-09-19T06:17:09;4.85;;;2.03;;
9860;SDS011;4969;52.304;4.968;2023-09-19T06:19:37;6.30;;;2.17;;
9860;SDS011;4969;52.304;4.968;2023-09-19T06:22:03;6.97;;;2.35;;
9860;SDS011;4969;52.304;4.968;2023-09-19T06:24:30;7.15;;;2.80;;
9860;SDS011;4969;52.304;4.968;2023-09-19T06:26:57;10.02;;;2.90;;
9860;SDS011;4969;52.304;4.968;2023-09-19T06:29:26;7.20;;;2.45;;
9860;SDS011;4969;52.304;4.968;2023-09-19T06:31:53;8.48;;;2.92;;
9860;SDS011;4969;52.304;4.968;2023-09-19T06:34:20;8.30;;;2.45;;
9860;SDS011;4969;52.304;4.968;2023-09-19T06:36:49;8.40;;;2.58;;
9860;SDS011;4969;52.304;4.968;2023-09-19T06:39:17;5.55;;;2.40;;
9860;SDS011;4969;52.304;4.968;2023-09-19T06:41:44;6.72;;;2.63;;
9860;SDS011;4969;52.304;4.968;2023-09-19T06:44:11;7.00;;;2.30;;
9860;SDS011;4969;52.304;4.968;2023-09-19T06:46:37;10.02;;;2.85;;
9860;SDS011;4969;52.304;4.968;2023-09-19T06:49:06;8.38;;;2.97;;
9860;SDS011;4969;52.304;4.968;2023-09-19T06:51:32;7.38;;;2.40;;
9860;SDS011;4969;52.304;4.968;2023-09-19T06:54:02;7.15;;;2.92;;
9860;SDS011;4969;52.304;4.968;2023-09-19T06:56:30;7.28;;;2.72;;
9860;SDS011;4969;52.304;4.968;2023-09-19T06:58:57;6.20;;;1.83;;
9860;SDS011;4969;52.304;4.968;2023-09-19T07:01:23;9.23;;;3.15;;
9860;SDS011;4969;52.304;4.968;2023-09-19T07:03:50;8.27;;;3.00;;
9860;SDS011;4969;52.304;4.968;2023-09-19T07:06:18;10.75;;;3.10;;
9860;SDS011;4969;52.304;4.968;2023-09-19T07:08:45;8.07;;;3.03;;
9860;SDS011;4969;52.304;4.968;2023-09-19T07:11:12;8.98;;;3.10;;
9860;SDS011;4969;52.304;4.968;2023-09-19T07:13:39;7.60;;;2.95;;
9860;SDS011;4969;52.304;4.968;2023-09-19T07:16:06;10.30;;;2.53;;
9860;SDS011;4969;52.304;4.968;2023-09-19T07:18:34;7.90;;;2.90;;
9860;SDS011;4969;52.304;4.968;2023-09-19T07:21:01;8.18;;;3.20;;
9860;SDS011;4969;52.304;4.968;2023-09-19T07:23:30;6.47;;;2.88;;
9860;SDS011;4969;52.304;4.968;2023-09-19T07:26:00;7.97;;;3.17;;
9860;SDS011;4969;52.304;4.968;2023-09-19T07:28:28;8.98;;;3.20;;
9860;SDS011;4969;52.304;4.968;2023-09-19T07:30:54;9.02;;;2.92;;
9860;SDS011;4969;52.304;4.968;2023-09-19T07:33:21;16.50;;;3.83;;
9860;SDS011;4969;52.304;4.968;2023-09-19T07:35:50;7.30;;;2.83;;
9860;SDS011;4969;52.304;4.968;2023-09-19T07:38:16;7.55;;;2.63;;
9860;SDS011;4969;52.304;4.968;2023-09-19T07:40:43;11.05;;;3.05;;
9860;SDS011;4969;52.304;4.968;2023-09-19T07:43:10;7.13;;;2.78;;
9860;SDS011;4969;52.304;4.968;2023-09-19T07:45:38;8.63;;;3.22;;
9860;SDS011;4969;52.304;4.968;2023-09-19T07:48:05;6.47;;;2.80;;
9860;SDS011;4969;52.304;4.968;2023-09-19T07:50:38;7.88;;;2.75;;
9860;SDS011;4969;52.304;4.968;2023-09-19T07:53:05;7.70;;;3.42;;
9860;SDS011;4969;52.304;4.968;2023-09-19T07:55:32;9.75;;;3.17;;
9860;SDS011;4969;52.304;4.968;2023-09-19T07:57:59;6.80;;;2.38;;
9860;SDS011;4969;52.304;4.968;2023-09-19T08:00:26;11.32;;;2.97;;
9860;SDS011;4969;52.304;4.968;2023-09-19T08:02:57;9.75;;;3.30;;
9860;SDS011;4969;52.304;4.968;2023-09-19T08:05:30;12.27;;;3.55;;
9860;SDS011;4969;52.304;4.968;2023-09-19T08:08:04;7.28;;;2.78;;
9860;SDS011;4969;52.304;4.968;2023-09-19T08:10:36;10.30;;;2.92;;
9860;SDS011;4969;52.304;4.968;2023-09-19T08:13:10;7.32;;;3.00;;
9860;SDS011;4969;52.304;4.968;2023-09-19T08:15:48;7.60;;;2.92;;
9860;SDS011;4969;52.304;4.968;2023-09-19T08:18:20;16.30;;;3.83;;
9860;SDS011;4969;52.304;4.968;2023-09-19T08:20:56;10.52;;;3.40;;
9860;SDS011;4969;52.304;4.968;2023-09-19T08:23:28;13.00;;;3.47;;
9860;SDS011;4969;52.304;4.968;2023-09-19T08:25:59;13.35;;;3.17;;
9860;SDS011;4969;52.304;4.968;2023-09-19T08:28:33;9.30;;;3.05;;
9860;SDS011;4969;52.304;4.968;2023-09-19T08:31:12;10.25;;;3.92;;
9860;SDS011;4969;52.304;4.968;2023-09-19T08:33:46;11.18;;;3.72;;
9860;SDS011;4969;52.304;4.968;2023-09-19T08:36:17;10.45;;;3.20;;
9860;SDS011;4969;52.304;4.968;2023-09-19T08:38:45;7.80;;;2.97;;
9860;SDS011;4969;52.304;4.968;2023-09-19T08:41:18;11.38;;;3.58;;
9860;SDS011;4969;52.304;4.968;2023-09-19T08:43:50;14.55;;;3.35;;
9860;SDS011;4969;52.304;4.968;2023-09-19T08:46:21;10.13;;;3.95;;
9860;SDS011;4969;52.304;4.968;2023-09-19T08:49:02;11.07;;;3.15;;
9860;SDS011;4969;52.304;4.968;2023-09-19T08:51:33;12.98;;;3.10;;
9860;SDS011;4969;52.304;4.968;2023-09-19T08:54:11;13.02;;;3.92;;
9860;SDS011;4969;52.304;4.968;2023-09-19T08:56:54;8.85;;;3.40;;
9860;SDS011;4969;52.304;4.968;2023-09-19T08:59:28;9.50;;;3.70;;
9860;SDS011;4969;52.304;4.968;2023-09-19T09:02:00;10.48;;;3.40;;
9860;SDS011;4969;52.304;4.968;2023-09-19T09:04:32;11.57;;;3.42;;
9860;SDS011;4969;52.304;4.968;2023-09-19T09:07:11;11.25;;;3.45;;
9860;SDS011;4969;52.304;4.968;2023-09-19T09:09:38;9.88;;;3.30;;
9860;SDS011;4969;52.304;4.968;2023-09-19T09:12:08;10.32;;;2.97;;
9860;SDS011;4969;52.304;4.968;2023-09-19T09:14:38;7.97;;;3.30;;
9860;SDS011;4969;52.304;4.968;2023-09-19T09:17:19;7.45;;;3.08;;
9860;SDS011;4969;52.304;4.968;2023-09-19T09:22:50;8.20;;;2.95;;
9860;SDS011;4969;52.304;4.968;2023-09-19T09:25:27;8.95;;;3.20;;
9860;SDS011;4969;52.304;4.968;2023-09-19T09:28:28;8.02;;;2.90;;
9860;SDS011;4969;52.304;4.968;2023-09-19T09:30:59;9.63;;;3.40;;
9860;SDS011;4969;52.304;4.968;2023-09-19T09:33:37;10.73;;;3.40;;
9860;SDS011;4969;52.304;4.968;2023-09-19T09:36:11;9.02;;;3.15;;
9860;SDS011;4969;52.304;4.968;2023-09-19T09:38:46;9.23;;;2.95;;
9860;SDS011;4969;52.304;4.968;2023-09-19T09:41:16;12.10;;;3.42;;
9860;SDS011;4969;52.304;4.968;2023-09-19T09:43:56;8.73;;;3.60;;
9860;SDS011;4969;52.304;4.968;2023-09-19T09:46:43;7.93;;;3.10;;
9860;SDS011;4969;52.304;4.968;2023-09-19T09:49:43;9.45;;;3.63;;
9860;SDS011;4969;52.304;4.968;2023-09-19T09:52:46;9.20;;;3.50;;
9860;SDS011;4969;52.304;4.968;2023-09-19T09:55:17;12.18;;;3.90;;
9860;SDS011;4969;52.304;4.968;2023-09-19T09:57:55;13.88;;;3.97;;
9860;SDS011;4969;52.304;4.968;2023-09-19T10:00:55;15.95;;;3.50;;
9860;SDS011;4969;52.304;4.968;2023-09-19T10:03:32;8.52;;;3.00;;
9860;SDS011;4969;52.304;4.968;2023-09-19T10:06:11;8.50;;;3.20;;
9860;SDS011;4969;52.304;4.968;2023-09-19T10:09:10;8.70;;;3.22;;
9860;SDS011;4969;52.304;4.968;2023-09-19T10:11:47;11.55;;;3.15;;
9860;SDS011;4969;52.304;4.968;2023-09-19T10:14:30;9.55;;;3.53;;
9860;SDS011;4969;52.304;4.968;2023-09-19T10:17:22;11.52;;;3.65;;
9860;SDS011;4969;52.304;4.968;2023-09-19T10:19:54;9.77;;;3.30;;
9860;SDS011;4969;52.304;4.968;2023-09-19T10:22:25;10.40;;;3.30;;
9860;SDS011;4969;52.304;4.968;2023-09-19T10:27:31;9.82;;;2.90;;
9860;SDS011;4969;52.304;4.968;2023-09-19T10:30:03;8.02;;;3.10;;
9860;SDS011;4969;52.304;4.968;2023-09-19T10:32:33;7.30;;;2.70;;
9860;SDS011;4969;52.304;4.968;2023-09-19T10:35:01;10.40;;;3.13;;
9860;SDS011;4969;52.304;4.968;2023-09-19T10:37:30;9.27;;;3.40;;
9860;SDS011;4969;52.304;4.968;2023-09-19T10:40:00;7.65;;;3.58;;
9860;SDS011;4969;52.304;4.968;2023-09-19T10:42:26;10.90;;;3.38;;
9860;SDS011;4969;52.304;4.968;2023-09-19T10:44:56;8.18;;;2.78;;
9860;SDS011;4969;52.304;4.968;2023-09-19T10:47:26;9.13;;;3.13;;
9860;SDS011;4969;52.304;4.968;2023-09-19T10:49:53;10.63;;;2.60;;
9860;SDS011;4969;52.304;4.968;2023-09-19T10:52:20;6.68;;;2.58;;
9860;SDS011;4969;52.304;4.968;2023-09-19T10:54:50;9.18;;;2.25;;
9860;SDS011;4969;52.304;4.968;2023-09-19T10:57:21;6.07;;;2.58;;
9860;SDS011;4969;52.304;4.968;2023-09-19T11:00:03;6.95;;;2.50;;
9860;SDS011;4969;52.304;4.968;2023-09-19T11:05:59;6.15;;;2.33;;
9860;SDS011;4969;52.304;4.968;2023-09-19T11:11:41;5.95;;;2.35;;
9860;SDS011;4969;52.304;4.968;2023-09-19T11:14:14;8.52;;;2.50;;
9860;SDS011;4969;52.304;4.968;2023-09-19T11:23:19;8.30;;;2.63;;
9860;SDS011;4969;52.304;4.968;2023-09-19T11:25:51;3.95;;;1.75;;
9860;SDS011;4969;52.304;4.968;2023-09-19T11:28:31;5.03;;;1.80;;
9860;SDS011;4969;52.304;4.968;2023-09-19T11:40:29;5.80;;;2.35;;
9860;SDS011;4969;52.304;4.968;2023-09-19T11:42:55;5.38;;;2.28;;
9860;SDS011;4969;52.304;4.968;2023-09-19T11:48:30;8.18;;;2.30;;
9860;SDS011;4969;52.304;4.968;2023-09-19T11:50:58;7.13;;;1.58;;
9860;SDS011;4969;52.304;4.968;2023-09-19T11:53:30;4.03;;;2.25;;
9860;SDS011;4969;52.304;4.968;2023-09-19T11:56:04;8.10;;;2.63;;
9860;SDS011;4969;52.304;4.968;2023-09-19T11:58:35;8.77;;;5.15;;
9860;SDS011;4969;52.304;4.968;2023-09-19T12:01:03;12.90;;;4.68;;
9860;SDS011;4969;52.304;4.968;2023-09-19T12:03:33;21.77;;;9.13;;
9860;SDS011;4969;52.304;4.968;2023-09-19T12:06:10;22.20;;;9.10;;
9860;SDS011;4969;52.304;4.968;2023-09-19T12:08:39;16.80;;;8.20;;
9860;SDS011;4969;52.304;4.968;2023-09-19T12:11:11;9.20;;;3.75;;
9860;SDS011;4969;52.304;4.968;2023-09-19T12:13:41;12.50;;;5.18;;
9860;SDS011;4969;52.304;4.968;2023-09-19T12:16:15;9.02;;;4.05;;
9860;SDS011;4969;52.304;4.968;2023-09-19T12:18:43;9.82;;;3.53;;
9860;SDS011;4969;52.304;4.968;2023-09-19T12:21:24;19.90;;;8.43;;
9860;SDS011;4969;52.304;4.968;2023-09-19T12:24:06;21.45;;;8.73;;
9860;SDS011;4969;52.304;4.968;2023-09-19T12:26:42;11.90;;;4.53;;
9860;SDS011;4969;52.304;4.968;2023-09-19T12:29:14;19.83;;;8.10;;
9860;SDS011;4969;52.304;4.968;2023-09-19T12:31:47;25.88;;;11.55;;
9860;SDS011;4969;52.304;4.968;2023-09-19T12:34:16;21.00;;;7.85;;
9860;SDS011;4969;52.304;4.968;2023-09-19T12:36:45;9.65;;;4.32;;
9860;SDS011;4969;52.304;4.968;2023-09-19T12:39:21;22.65;;;10.77;;
9860;SDS011;4969;52.304;4.968;2023-09-19T12:41:51;17.27;;;8.95;;
9860;SDS011;4969;52.304;4.968;2023-09-19T12:44:18;12.98;;;6.25;;
9860;SDS011;4969;52.304;4.968;2023-09-19T12:46:45;15.82;;;7.05;;
9860;SDS011;4969;52.304;4.968;2023-09-19T12:49:14;13.45;;;6.40;;
9860;SDS011;4969;52.304;4.968;2023-09-19T12:51:42;21.48;;;8.68;;
9860;SDS011;4969;52.304;4.968;2023-09-19T12:54:09;14.02;;;7.15;;
9860;SDS011;4969;52.304;4.968;2023-09-19T12:56:39;10.40;;;4.82;;
9860;SDS011;4969;52.304;4.968;2023-09-19T12:59:08;14.38;;;6.35;;
9860;SDS011;4969;52.304;4.968;2023-09-19T13:01:35;10.27;;;4.32;;
9860;SDS011;4969;52.304;4.968;2023-09-19T13:04:14;13.98;;;6.65;;
9860;SDS011;4969;52.304;4.968;2023-09-19T13:06:44;10.40;;;3.85;;
9860;SDS011;4969;52.304;4.968;2023-09-19T13:09:13;13.13;;;7.38;;
9860;SDS011;4969;52.304;4.968;2023-09-19T13:11:41;10.82;;;5.45;;
9860;SDS011;4969;52.304;4.968;2023-09-19T13:14:20;18.58;;;7.95;;
9860;SDS011;4969;52.304;4.968;2023-09-19T13:16:58;17.73;;;8.50;;
9860;SDS011;4969;52.304;4.968;2023-09-19T13:19:42;8.35;;;3.60;;
9860;SDS011;4969;52.304;4.968;2023-09-19T13:25:04;18.17;;;7.78;;
9860;SDS011;4969;52.304;4.968;2023-09-19T13:27:33;12.20;;;5.85;;
9860;SDS011;4969;52.304;4.968;2023-09-19T13:30:01;15.93;;;6.75;;
9860;SDS011;4969;52.304;4.968;2023-09-19T13:32:27;15.85;;;7.15;;
9860;SDS011;4969;52.304;4.968;2023-09-19T13:34:54;6.85;;;2.75;;
9860;SDS011;4969;52.304;4.968;2023-09-19T13:37:21;10.27;;;3.90;;
9860;SDS011;4969;52.304;4.968;2023-09-19T13:39:47;9.80;;;4.70;;
9860;SDS011;4969;52.304;4.968;2023-09-19T13:42:14;9.82;;;3.97;;
9860;SDS011;4969;52.304;4.968;2023-09-19T13:44:41;12.25;;;5.32;;
9860;SDS011;4969;52.304;4.968;2023-09-19T13:47:09;10.30;;;4.05;;
9860;SDS011;4969;52.304;4.968;2023-09-19T13:49:38;5.03;;;2.65;;
9860;SDS011;4969;52.304;4.968;2023-09-19T13:52:05;5.78;;;3.03;;
9860;SDS011;4969;52.304;4.968;2023-09-19T13:54:32;6.65;;;2.97;;
9860;SDS011;4969;52.304;4.968;2023-09-19T13:56:59;13.80;;;5.57;;
9860;SDS011;4969;52.304;4.968;2023-09-19T13:59:26;6.85;;;3.47;;
9860;SDS011;4969;52.304;4.968;2023-09-19T14:01:53;7.22;;;3.63;;
9860;SDS011;4969;52.304;4.968;2023-09-19T14:04:21;8.75;;;3.92;;
9860;SDS011;4969;52.304;4.968;2023-09-19T14:06:48;8.25;;;4.63;;
9860;SDS011;4969;52.304;4.968;2023-09-19T14:09:14;13.18;;;4.70;;
9860;SDS011;4969;52.304;4.968;2023-09-19T14:11:44;8.60;;;4.18;;
9860;SDS011;4969;52.304;4.968;2023-09-19T14:14:12;7.22;;;3.42;;
9860;SDS011;4969;52.304;4.968;2023-09-19T14:16:40;15.30;;;7.15;;
9860;SDS011;4969;52.304;4.968;2023-09-19T14:19:07;11.85;;;5.90;;
9860;SDS011;4969;52.304;4.968;2023-09-19T14:21:35;8.13;;;4.75;;
9860;SDS011;4969;52.304;4.968;2023-09-19T14:24:04;7.43;;;3.63;;
9860;SDS011;4969;52.304;4.968;2023-09-19T14:26:34;6.60;;;3.08;;
9860;SDS011;4969;52.304;4.968;2023-09-19T14:29:01;8.95;;;4.32;;
9860;SDS011;4969;52.304;4.968;2023-09-19T14:31:27;8.07;;;4.45;;
9860;SDS011;4969;52.304;4.968;2023-09-19T14:33:54;7.43;;;2.80;;
9860;SDS011;4969;52.304;4.968;2023-09-19T14:36:22;7.88;;;4.22;;
9860;SDS011;4969;52.304;4.968;2023-09-19T14:38:51;9.55;;;4.28;;
9860;SDS011;4969;52.304;4.968;2023-09-19T14:41:19;7.00;;;3.20;;
9860;SDS011;4969;52.304;4.968;2023-09-19T14:43:46;10.40;;;5.30;;
9860;SDS011;4969;52.304;4.968;2023-09-19T14:46:13;7.78;;;3.40;;
9860;SDS011;4969;52.304;4.968;2023-09-19T14:48:40;6.70;;;3.38;;
9860;SDS011;4969;52.304;4.968;2023-09-19T14:51:07;9.40;;;4.20;;
9860;SDS011;4969;52.304;4.968;2023-09-19T14:53:34;8.45;;;4.38;;
9860;SDS011;4969;52.304;4.968;2023-09-19T14:56:04;9.23;;;3.45;;
9860;SDS011;4969;52.304;4.968;2023-09-19T14:58:32;5.45;;;2.90;;
9860;SDS011;4969;52.304;4.968;2023-09-19T15:01:03;5.15;;;3.40;;
9860;SDS011;4969;52.304;4.968;2023-09-19T15:03:31;6.45;;;3.15;;
9860;SDS011;4969;52.304;4.968;2023-09-19T15:05:58;8.70;;;3.25;;
9860;SDS011;4969;52.304;4.968;2023-09-19T15:08:26;6.43;;;3.13;;
9860;SDS011;4969;52.304;4.968;2023-09-19T15:10:53;8.00;;;3.17;;
9860;SDS011;4969;52.304;4.968;2023-09-19T15:13:22;6.95;;;2.85;;
9860;SDS011;4969;52.304;4.968;2023-09-19T15:15:53;4.97;;;2.90;;
9860;SDS011;4969;52.304;4.968;2023-09-19T15:18:24;7.22;;;3.42;;
9860;SDS011;4969;52.304;4.968;2023-09-19T15:20:51;6.60;;;3.45;;
9860;SDS011;4969;52.304;4.968;2023-09-19T15:23:18;8.70;;;4.35;;
9860;SDS011;4969;52.304;4.968;2023-09-19T15:25:47;9.50;;;3.92;;
9860;SDS011;4969;52.304;4.968;2023-09-19T15:28:14;9.10;;;3.47;;
9860;SDS011;4969;52.304;4.968;2023-09-19T15:30:43;10.52;;;3.88;;
9860;SDS011;4969;52.304;4.968;2023-09-19T15:33:09;12.27;;;5.72;;
9860;SDS011;4969;52.304;4.968;2023-09-19T15:35:36;10.38;;;5.07;;
9860;SDS011;4969;52.304;4.968;2023-09-19T15:38:03;6.68;;;3.05;;
9860;SDS011;4969;52.304;4.968;2023-09-19T15:40:30;10.05;;;4.65;;
9860;SDS011;4969;52.304;4.968;2023-09-19T15:42:57;10.93;;;4.90;;
9860;SDS011;4969;52.304;4.968;2023-09-19T15:45:23;10.80;;;3.83;;
9860;SDS011;4969;52.304;4.968;2023-09-19T15:47:52;9.85;;;3.42;;
9860;SDS011;4969;52.304;4.968;2023-09-19T15:50:19;12.68;;;3.92;;
9860;SDS011;4969;52.304;4.968;2023-09-19T15:52:46;13.10;;;4.38;;
9860;SDS011;4969;52.304;4.968;2023-09-19T15:55:19;13.70;;;5.20;;
9860;SDS011;4969;52.304;4.968;2023-09-19T15:57:46;9.48;;;3.53;;
9860;SDS011;4969;52.304;4.968;2023-09-19T16:00:13;10.88;;;4.38;;
9860;SDS011;4969;52.304;4.968;2023-09-19T16:02:42;9.68;;;4.68;;
9860;SDS011;4969;52.304;4.968;2023-09-19T16:05:10;11.38;;;3.80;;